sensor_id;sensor_type;location;lat;lon;timestamp;temperature;humidity
52575;DHT22;38468;48.114;-1.684;2022-09-01T00:01:51;22.10;74.20
52575;DHT22;38468;48.114;-1.684;2022-09-01T00:03:54;22.20;74.10
52575;DHT22;38468;48.114;-1.684;2022-09-01T00:05:55;22.20;74.10
52575;DHT22;38468;48.114;-1.684;2022-09-01T00:07:56;22.30;74.10
52575;DHT22;38468;48.114;-1.684;2022-09-01T00:09:58;22.30;74.20
52575;DHT22;38468;48.114;-1.684;2022-09-01T00:11:59;22.30;74.40
52575;DHT22;38468;48.114;-1.684;2022-09-01T00:14:01;22.30;74.30
52575;DHT22;38468;48.114;-1.684;2022-09-01T00:16:02;22.20;74.60
52575;DHT22;38468;48.114;-1.684;2022-09-01T00:18:03;22.00;74.80
52575;DHT22;38468;48.114;-1.684;2022-09-01T00:20:05;22.10;74.60
52575;DHT22;38468;48.114;-1.684;2022-09-01T00:22:07;22.10;74.40
52575;DHT22;38468;48.114;-1.684;2022-09-01T00:24:09;22.20;74.50
52575;DHT22;38468;48.114;-1.684;2022-09-01T00:26:10;22.30;74.10
52575;DHT22;38468;48.114;-1.684;2022-09-01T00:28:11;22.30;74.00
52575;DHT22;38468;48.114;-1.684;2022-09-01T00:30:12;22.40;74.00
52575;DHT22;38468;48.114;-1.684;2022-09-01T00:32:12;22.30;74.10
52575;DHT22;38468;48.114;-1.684;2022-09-01T00:34:14;22.20;74.30
52575;DHT22;38468;48.114;-1.684;2022-09-01T00:36:16;22.10;74.70
52575;DHT22;38468;48.114;-1.684;2022-09-01T00:38:17;22.00;74.80
52575;DHT22;38468;48.114;-1.684;2022-09-01T00:40:18;22.00;74.90
52575;DHT22;38468;48.114;-1.684;2022-09-01T00:42:19;22.00;74.60
52575;DHT22;38468;48.114;-1.684;2022-09-01T00:44:21;22.00;74.80
52575;DHT22;38468;48.114;-1.684;2022-09-01T00:46:26;22.10;74.50
52575;DHT22;38468;48.114;-1.684;2022-09-01T00:48:27;22.10;74.50
52575;DHT22;38468;48.114;-1.684;2022-09-01T00:50:28;22.20;74.50
52575;DHT22;38468;48.114;-1.684;2022-09-01T00:52:34;22.20;74.40
52575;DHT22;38468;48.114;-1.684;2022-09-01T00:54:39;22.20;74.20
52575;DHT22;38468;48.114;-1.684;2022-09-01T00:56:41;22.30;74.10
52575;DHT22;38468;48.114;-1.684;2022-09-01T00:58:42;22.30;73.80
52575;DHT22;38468;48.114;-1.684;2022-09-01T01:00:45;22.30;73.90
52575;DHT22;38468;48.114;-1.684;2022-09-01T01:02:49;22.20;74.10
52575;DHT22;38468;48.114;-1.684;2022-09-01T01:04:55;22.10;74.30
52575;DHT22;38468;48.114;-1.684;2022-09-01T01:06:59;22.20;74.20
52575;DHT22;38468;48.114;-1.684;2022-09-01T01:09:04;22.20;74.00
52575;DHT22;38468;48.114;-1.684;2022-09-01T01:11:10;22.20;73.90
52575;DHT22;38468;48.114;-1.684;2022-09-01T01:13:16;22.20;74.00
52575;DHT22;38468;48.114;-1.684;2022-09-01T01:15:18;22.10;73.90
52575;DHT22;38468;48.114;-1.684;2022-09-01T01:17:20;22.10;74.00
52575;DHT22;38468;48.114;-1.684;2022-09-01T01:19:42;22.10;73.90
52575;DHT22;38468;48.114;-1.684;2022-09-01T01:22:04;22.00;74.10
52575;DHT22;38468;48.114;-1.684;2022-09-01T01:24:29;22.10;74.20
52575;DHT22;38468;48.114;-1.684;2022-09-01T01:26:31;22.00;74.20
52575;DHT22;38468;48.114;-1.684;2022-09-01T01:28:37;21.90;74.40
52575;DHT22;38468;48.114;-1.684;2022-09-01T01:30:45;22.00;74.50
52575;DHT22;38468;48.114;-1.684;2022-09-01T01:32:51;21.70;74.80
52575;DHT22;38468;48.114;-1.684;2022-09-01T01:34:52;21.80;74.90
52575;DHT22;38468;48.114;-1.684;2022-09-01T01:36:53;21.80;74.90
52575;DHT22;38468;48.114;-1.684;2022-09-01T01:39:05;21.90;74.90
52575;DHT22;38468;48.114;-1.684;2022-09-01T01:41:07;21.80;75.00
52575;DHT22;38468;48.114;-1.684;2022-09-01T01:43:08;21.80;74.90
52575;DHT22;38468;48.114;-1.684;2022-09-01T01:45:17;21.80;75.00
52575;DHT22;38468;48.114;-1.684;2022-09-01T01:47:19;21.80;75.00
52575;DHT22;38468;48.114;-1.684;2022-09-01T01:49:23;21.80;75.10
52575;DHT22;38468;48.114;-1.684;2022-09-01T01:51:24;21.80;74.90
52575;DHT22;38468;48.114;-1.684;2022-09-01T01:53:27;21.90;74.70
52575;DHT22;38468;48.114;-1.684;2022-09-01T01:55:28;21.90;74.60
52575;DHT22;38468;48.114;-1.684;2022-09-01T01:57:30;22.00;74.60
52575;DHT22;38468;48.114;-1.684;2022-09-01T01:59:34;22.00;74.30
52575;DHT22;38468;48.114;-1.684;2022-09-01T02:01:35;21.90;74.40
52575;DHT22;38468;48.114;-1.684;2022-09-01T02:03:38;21.90;74.40
52575;DHT22;38468;48.114;-1.684;2022-09-01T02:05:39;21.90;74.30
52575;DHT22;38468;48.114;-1.684;2022-09-01T02:07:40;21.80;74.40
52575;DHT22;38468;48.114;-1.684;2022-09-01T02:09:42;21.60;74.60
52575;DHT22;38468;48.114;-1.684;2022-09-01T02:11:45;21.60;74.70
52575;DHT22;38468;48.114;-1.684;2022-09-01T02:13:46;21.60;74.60
52575;DHT22;38468;48.114;-1.684;2022-09-01T02:15:51;21.50;74.40
52575;DHT22;38468;48.114;-1.684;2022-09-01T02:17:53;21.60;74.30
52575;DHT22;38468;48.114;-1.684;2022-09-01T02:19:59;21.50;74.30
52575;DHT22;38468;48.114;-1.684;2022-09-01T02:22:00;21.50;74.50
52575;DHT22;38468;48.114;-1.684;2022-09-01T02:24:04;21.40;74.80
52575;DHT22;38468;48.114;-1.684;2022-09-01T02:26:08;21.30;75.00
52575;DHT22;38468;48.114;-1.684;2022-09-01T02:28:13;21.30;75.10
52575;DHT22;38468;48.114;-1.684;2022-09-01T02:30:17;21.20;75.30
52575;DHT22;38468;48.114;-1.684;2022-09-01T02:32:18;21.30;75.10
52575;DHT22;38468;48.114;-1.684;2022-09-01T02:34:23;21.30;75.00
52575;DHT22;38468;48.114;-1.684;2022-09-01T02:36:27;21.40;75.00
52575;DHT22;38468;48.114;-1.684;2022-09-01T02:38:28;21.40;75.00
52575;DHT22;38468;48.114;-1.684;2022-09-01T02:40:31;21.40;74.80
52575;DHT22;38468;48.114;-1.684;2022-09-01T02:42:32;21.40;74.70
52575;DHT22;38468;48.114;-1.684;2022-09-01T02:44:33;21.40;74.50
52575;DHT22;38468;48.114;-1.684;2022-09-01T02:46:33;21.40;74.50
52575;DHT22;38468;48.114;-1.684;2022-09-01T02:48:40;21.40;74.60
52575;DHT22;38468;48.114;-1.684;2022-09-01T02:50:41;21.40;74.60
52575;DHT22;38468;48.114;-1.684;2022-09-01T02:52:42;21.30;74.60
52575;DHT22;38468;48.114;-1.684;2022-09-01T02:54:43;21.40;74.60
52575;DHT22;38468;48.114;-1.684;2022-09-01T02:56:45;21.30;74.80
52575;DHT22;38468;48.114;-1.684;2022-09-01T02:58:48;21.40;74.80
52575;DHT22;38468;48.114;-1.684;2022-09-01T03:00:54;21.20;74.90
52575;DHT22;38468;48.114;-1.684;2022-09-01T03:02:57;21.10;75.10
52575;DHT22;38468;48.114;-1.684;2022-09-01T03:04:58;21.10;75.20
52575;DHT22;38468;48.114;-1.684;2022-09-01T03:07:02;21.20;75.10
52575;DHT22;38468;48.114;-1.684;2022-09-01T03:09:07;21.20;75.00
52575;DHT22;38468;48.114;-1.684;2022-09-01T03:11:08;21.20;75.00
52575;DHT22;38468;48.114;-1.684;2022-09-01T03:13:13;21.20;74.80
52575;DHT22;38468;48.114;-1.684;2022-09-01T03:15:14;21.20;74.90
52575;DHT22;38468;48.114;-1.684;2022-09-01T03:17:15;21.20;74.60
52575;DHT22;38468;48.114;-1.684;2022-09-01T03:19:16;21.20;74.70
52575;DHT22;38468;48.114;-1.684;2022-09-01T03:21:19;21.20;74.70
52575;DHT22;38468;48.114;-1.684;2022-09-01T03:23:20;21.20;74.80
52575;DHT22;38468;48.114;-1.684;2022-09-01T03:25:21;21.20;74.90
52575;DHT22;38468;48.114;-1.684;2022-09-01T03:27:24;21.10;75.00
52575;DHT22;38468;48.114;-1.684;2022-09-01T03:29:25;21.20;75.00
52575;DHT22;38468;48.114;-1.684;2022-09-01T03:31:25;21.20;74.90
52575;DHT22;38468;48.114;-1.684;2022-09-01T03:33:27;21.20;74.80
52575;DHT22;38468;48.114;-1.684;2022-09-01T03:35:29;21.20;74.80
52575;DHT22;38468;48.114;-1.684;2022-09-01T03:37:32;21.20;74.80
52575;DHT22;38468;48.114;-1.684;2022-09-01T03:39:33;21.20;74.90
52575;DHT22;38468;48.114;-1.684;2022-09-01T03:41:33;21.20;75.00
52575;DHT22;38468;48.114;-1.684;2022-09-01T03:43:37;21.10;75.30
52575;DHT22;38468;48.114;-1.684;2022-09-01T03:45:38;21.10;75.30
52575;DHT22;38468;48.114;-1.684;2022-09-01T03:47:39;21.00;75.30
52575;DHT22;38468;48.114;-1.684;2022-09-01T03:49:40;21.10;75.30
52575;DHT22;38468;48.114;-1.684;2022-09-01T03:51:43;21.10;75.40
52575;DHT22;38468;48.114;-1.684;2022-09-01T03:53:44;21.10;75.30
52575;DHT22;38468;48.114;-1.684;2022-09-01T03:55:47;21.00;75.30
52575;DHT22;38468;48.114;-1.684;2022-09-01T03:57:50;21.10;75.30
52575;DHT22;38468;48.114;-1.684;2022-09-01T03:59:51;21.10;75.20
52575;DHT22;38468;48.114;-1.684;2022-09-01T04:01:53;21.00;75.40
52575;DHT22;38468;48.114;-1.684;2022-09-01T04:03:54;21.00;75.40
52575;DHT22;38468;48.114;-1.684;2022-09-01T04:05:55;20.90;75.60
52575;DHT22;38468;48.114;-1.684;2022-09-01T04:07:58;20.80;75.70
52575;DHT22;38468;48.114;-1.684;2022-09-01T04:10:01;20.80;75.50
52575;DHT22;38468;48.114;-1.684;2022-09-01T04:12:03;20.80;75.30
52575;DHT22;38468;48.114;-1.684;2022-09-01T04:14:09;20.90;75.30
52575;DHT22;38468;48.114;-1.684;2022-09-01T04:16:25;20.90;75.10
52575;DHT22;38468;48.114;-1.684;2022-09-01T04:18:45;20.90;75.30
52575;DHT22;38468;48.114;-1.684;2022-09-01T04:20:52;20.90;75.30
52575;DHT22;38468;48.114;-1.684;2022-09-01T04:22:54;20.90;75.30
52575;DHT22;38468;48.114;-1.684;2022-09-01T04:24:55;21.00;75.20
52575;DHT22;38468;48.114;-1.684;2022-09-01T04:26:58;21.00;75.30
52575;DHT22;38468;48.114;-1.684;2022-09-01T04:29:01;20.90;75.40
52575;DHT22;38468;48.114;-1.684;2022-09-01T04:31:06;20.90;75.30
52575;DHT22;38468;48.114;-1.684;2022-09-01T04:33:08;20.80;75.50
52575;DHT22;38468;48.114;-1.684;2022-09-01T04:35:09;20.80;75.30
52575;DHT22;38468;48.114;-1.684;2022-09-01T04:37:18;20.70;75.30
52575;DHT22;38468;48.114;-1.684;2022-09-01T04:39:21;20.80;75.40
52575;DHT22;38468;48.114;-1.684;2022-09-01T04:41:24;20.70;75.40
52575;DHT22;38468;48.114;-1.684;2022-09-01T04:43:25;20.70;75.40
52575;DHT22;38468;48.114;-1.684;2022-09-01T04:45:26;20.60;75.80
52575;DHT22;38468;48.114;-1.684;2022-09-01T04:47:28;20.60;76.00
52575;DHT22;38468;48.114;-1.684;2022-09-01T04:49:31;20.60;75.90
52575;DHT22;38468;48.114;-1.684;2022-09-01T04:51:33;20.70;76.00
52575;DHT22;38468;48.114;-1.684;2022-09-01T04:53:38;20.70;75.80
52575;DHT22;38468;48.114;-1.684;2022-09-01T04:55:40;20.60;75.90
52575;DHT22;38468;48.114;-1.684;2022-09-01T04:57:46;20.60;75.90
52575;DHT22;38468;48.114;-1.684;2022-09-01T04:59:48;20.50;76.20
52575;DHT22;38468;48.114;-1.684;2022-09-01T05:01:50;20.50;76.20
52575;DHT22;38468;48.114;-1.684;2022-09-01T05:03:53;20.60;76.10
52575;DHT22;38468;48.114;-1.684;2022-09-01T05:06:00;20.60;76.00
52575;DHT22;38468;48.114;-1.684;2022-09-01T05:08:03;20.70;76.00
52575;DHT22;38468;48.114;-1.684;2022-09-01T05:10:04;20.70;75.90
52575;DHT22;38468;48.114;-1.684;2022-09-01T05:12:05;20.70;75.80
52575;DHT22;38468;48.114;-1.684;2022-09-01T05:14:12;20.70;75.80
52575;DHT22;38468;48.114;-1.684;2022-09-01T05:16:18;20.70;76.00
52575;DHT22;38468;48.114;-1.684;2022-09-01T05:18:20;20.70;76.00
52575;DHT22;38468;48.114;-1.684;2022-09-01T05:20:23;20.70;76.00
52575;DHT22;38468;48.114;-1.684;2022-09-01T05:22:24;20.70;76.00
52575;DHT22;38468;48.114;-1.684;2022-09-01T05:24:25;20.80;75.90
52575;DHT22;38468;48.114;-1.684;2022-09-01T05:26:31;20.70;75.80
52575;DHT22;38468;48.114;-1.684;2022-09-01T05:28:33;20.70;75.80
52575;DHT22;38468;48.114;-1.684;2022-09-01T05:30:35;20.70;75.80
52575;DHT22;38468;48.114;-1.684;2022-09-01T05:32:37;20.80;75.80
52575;DHT22;38468;48.114;-1.684;2022-09-01T05:34:39;20.80;75.70
52575;DHT22;38468;48.114;-1.684;2022-09-01T05:36:42;20.50;76.20
52575;DHT22;38468;48.114;-1.684;2022-09-01T05:38:44;20.50;76.20
52575;DHT22;38468;48.114;-1.684;2022-09-01T05:40:56;20.70;76.10
52575;DHT22;38468;48.114;-1.684;2022-09-01T05:42:57;20.70;76.10
52575;DHT22;38468;48.114;-1.684;2022-09-01T05:44:59;20.80;75.70
52575;DHT22;38468;48.114;-1.684;2022-09-01T05:47:01;20.80;75.60
52575;DHT22;38468;48.114;-1.684;2022-09-01T05:49:05;20.80;75.70
52575;DHT22;38468;48.114;-1.684;2022-09-01T05:51:16;20.80;75.90
52575;DHT22;38468;48.114;-1.684;2022-09-01T05:53:19;20.50;76.50
52575;DHT22;38468;48.114;-1.684;2022-09-01T05:55:21;20.50;76.70
52575;DHT22;38468;48.114;-1.684;2022-09-01T05:57:22;20.40;77.10
52575;DHT22;38468;48.114;-1.684;2022-09-01T05:59:23;20.50;76.90
52575;DHT22;38468;48.114;-1.684;2022-09-01T06:01:26;20.60;76.80
52575;DHT22;38468;48.114;-1.684;2022-09-01T06:03:28;20.70;76.90
52575;DHT22;38468;48.114;-1.684;2022-09-01T06:05:33;20.50;77.20
52575;DHT22;38468;48.114;-1.684;2022-09-01T06:07:35;20.30;77.60
52575;DHT22;38468;48.114;-1.684;2022-09-01T06:09:38;20.20;77.90
52575;DHT22;38468;48.114;-1.684;2022-09-01T06:11:39;20.20;77.80
52575;DHT22;38468;48.114;-1.684;2022-09-01T06:13:41;20.30;77.60
52575;DHT22;38468;48.114;-1.684;2022-09-01T06:15:42;20.40;77.10
52575;DHT22;38468;48.114;-1.684;2022-09-01T06:17:43;20.50;77.10
52575;DHT22;38468;48.114;-1.684;2022-09-01T06:19:45;20.50;76.90
52575;DHT22;38468;48.114;-1.684;2022-09-01T06:21:46;20.50;76.90
52575;DHT22;38468;48.114;-1.684;2022-09-01T06:23:48;20.50;76.80
52575;DHT22;38468;48.114;-1.684;2022-09-01T06:25:54;20.60;76.50
52575;DHT22;38468;48.114;-1.684;2022-09-01T06:27:56;20.70;76.60
52575;DHT22;38468;48.114;-1.684;2022-09-01T06:29:56;20.80;76.50
52575;DHT22;38468;48.114;-1.684;2022-09-01T06:31:57;21.00;76.50
52575;DHT22;38468;48.114;-1.684;2022-09-01T06:33:59;21.00;76.40
52575;DHT22;38468;48.114;-1.684;2022-09-01T06:36:01;20.90;76.80
52575;DHT22;38468;48.114;-1.684;2022-09-01T06:38:05;21.00;76.80
52575;DHT22;38468;48.114;-1.684;2022-09-01T06:40:06;21.10;76.80
52575;DHT22;38468;48.114;-1.684;2022-09-01T06:42:10;21.10;76.80
52575;DHT22;38468;48.114;-1.684;2022-09-01T06:44:12;21.20;76.70
52575;DHT22;38468;48.114;-1.684;2022-09-01T06:46:15;21.30;76.50
52575;DHT22;38468;48.114;-1.684;2022-09-01T06:48:17;21.40;76.50
52575;DHT22;38468;48.114;-1.684;2022-09-01T06:50:20;21.50;76.50
52575;DHT22;38468;48.114;-1.684;2022-09-01T06:52:21;21.50;76.40
52575;DHT22;38468;48.114;-1.684;2022-09-01T06:54:23;21.50;76.40
52575;DHT22;38468;48.114;-1.684;2022-09-01T06:56:29;21.60;76.40
52575;DHT22;38468;48.114;-1.684;2022-09-01T06:58:31;21.70;76.10
52575;DHT22;38468;48.114;-1.684;2022-09-01T07:00:37;21.90;75.90
52575;DHT22;38468;48.114;-1.684;2022-09-01T07:02:41;21.90;75.50
52575;DHT22;38468;48.114;-1.684;2022-09-01T07:04:42;21.90;75.40
52575;DHT22;38468;48.114;-1.684;2022-09-01T07:06:44;21.70;75.60
52575;DHT22;38468;48.114;-1.684;2022-09-01T07:08:54;21.70;75.70
52575;DHT22;38468;48.114;-1.684;2022-09-01T07:10:56;21.60;75.70
52575;DHT22;38468;48.114;-1.684;2022-09-01T07:12:58;21.60;75.80
52575;DHT22;38468;48.114;-1.684;2022-09-01T07:15:01;21.50;76.00
52575;DHT22;38468;48.114;-1.684;2022-09-01T07:17:03;21.40;76.40
52575;DHT22;38468;48.114;-1.684;2022-09-01T07:19:04;21.60;76.10
52575;DHT22;38468;48.114;-1.684;2022-09-01T07:21:05;21.60;75.90
52575;DHT22;38468;48.114;-1.684;2022-09-01T07:23:07;21.70;75.00
52575;DHT22;38468;48.114;-1.684;2022-09-01T07:25:08;21.50;74.30
52575;DHT22;38468;48.114;-1.684;2022-09-01T07:27:11;21.50;74.60
52575;DHT22;38468;48.114;-1.684;2022-09-01T07:29:12;21.60;74.60
52575;DHT22;38468;48.114;-1.684;2022-09-01T07:31:25;21.70;73.50
52575;DHT22;38468;48.114;-1.684;2022-09-01T07:33:26;21.60;73.70
52575;DHT22;38468;48.114;-1.684;2022-09-01T07:35:29;21.60;73.90
52575;DHT22;38468;48.114;-1.684;2022-09-01T07:37:32;21.50;74.00
52575;DHT22;38468;48.114;-1.684;2022-09-01T07:39:36;21.60;73.80
52575;DHT22;38468;48.114;-1.684;2022-09-01T07:41:40;21.70;73.50
52575;DHT22;38468;48.114;-1.684;2022-09-01T07:43:41;21.70;73.20
52575;DHT22;38468;48.114;-1.684;2022-09-01T07:45:44;21.70;73.40
52575;DHT22;38468;48.114;-1.684;2022-09-01T07:47:48;21.90;73.60
52575;DHT22;38468;48.114;-1.684;2022-09-01T07:49:49;21.80;73.50
52575;DHT22;38468;48.114;-1.684;2022-09-01T07:51:49;21.90;73.60
52575;DHT22;38468;48.114;-1.684;2022-09-01T07:53:51;21.90;73.10
52575;DHT22;38468;48.114;-1.684;2022-09-01T07:55:54;22.00;73.50
52575;DHT22;38468;48.114;-1.684;2022-09-01T07:57:55;22.00;73.20
52575;DHT22;38468;48.114;-1.684;2022-09-01T07:59:57;22.00;72.80
52575;DHT22;38468;48.114;-1.684;2022-09-01T08:01:58;21.90;73.00
52575;DHT22;38468;48.114;-1.684;2022-09-01T08:04:00;22.00;73.10
52575;DHT22;38468;48.114;-1.684;2022-09-01T08:06:06;22.00;72.40
52575;DHT22;38468;48.114;-1.684;2022-09-01T08:08:07;22.00;72.90
52575;DHT22;38468;48.114;-1.684;2022-09-01T08:10:08;22.00;72.90
52575;DHT22;38468;48.114;-1.684;2022-09-01T08:12:08;22.00;72.80
52575;DHT22;38468;48.114;-1.684;2022-09-01T08:14:09;22.00;73.10
52575;DHT22;38468;48.114;-1.684;2022-09-01T08:16:10;22.00;72.90
52575;DHT22;38468;48.114;-1.684;2022-09-01T08:18:12;21.90;72.40
52575;DHT22;38468;48.114;-1.684;2022-09-01T08:20:12;21.90;72.80
52575;DHT22;38468;48.114;-1.684;2022-09-01T08:22:14;21.90;72.20
52575;DHT22;38468;48.114;-1.684;2022-09-01T08:24:22;22.00;72.00
52575;DHT22;38468;48.114;-1.684;2022-09-01T08:26:25;22.00;72.20
52575;DHT22;38468;48.114;-1.684;2022-09-01T08:28:26;22.00;72.40
52575;DHT22;38468;48.114;-1.684;2022-09-01T08:30:27;22.00;72.50
52575;DHT22;38468;48.114;-1.684;2022-09-01T08:32:27;22.10;72.30
52575;DHT22;38468;48.114;-1.684;2022-09-01T08:34:28;22.10;72.10
52575;DHT22;38468;48.114;-1.684;2022-09-01T08:36:32;22.00;72.50
52575;DHT22;38468;48.114;-1.684;2022-09-01T08:38:33;22.00;72.70
52575;DHT22;38468;48.114;-1.684;2022-09-01T08:40:34;22.10;72.90
52575;DHT22;38468;48.114;-1.684;2022-09-01T08:47:07;22.20;72.40
52575;DHT22;38468;48.114;-1.684;2022-09-01T08:49:17;22.20;72.50
52575;DHT22;38468;48.114;-1.684;2022-09-01T08:51:34;22.30;72.80
52575;DHT22;38468;48.114;-1.684;2022-09-01T08:53:45;22.40;72.90
52575;DHT22;38468;48.114;-1.684;2022-09-01T08:55:50;22.50;72.40
52575;DHT22;38468;48.114;-1.684;2022-09-01T08:57:55;22.50;72.40
52575;DHT22;38468;48.114;-1.684;2022-09-01T08:59:57;22.50;72.10
52575;DHT22;38468;48.114;-1.684;2022-09-01T09:08:54;22.50;71.80
52575;DHT22;38468;48.114;-1.684;2022-09-01T09:11:03;22.60;71.70
52575;DHT22;38468;48.114;-1.684;2022-09-01T09:13:20;22.60;72.30
52575;DHT22;38468;48.114;-1.684;2022-09-01T09:17:36;22.80;72.30
52575;DHT22;38468;48.114;-1.684;2022-09-01T09:19:43;22.80;72.40
52575;DHT22;38468;48.114;-1.684;2022-09-01T09:21:46;22.90;72.40
52575;DHT22;38468;48.114;-1.684;2022-09-01T09:23:52;23.00;71.90
52575;DHT22;38468;48.114;-1.684;2022-09-01T09:25:54;23.00;71.90
52575;DHT22;38468;48.114;-1.684;2022-09-01T09:27:55;23.10;71.70
52575;DHT22;38468;48.114;-1.684;2022-09-01T09:29:58;23.10;71.00
52575;DHT22;38468;48.114;-1.684;2022-09-01T09:32:06;23.20;70.90
52575;DHT22;38468;48.114;-1.684;2022-09-01T09:34:16;23.10;71.10
52575;DHT22;38468;48.114;-1.684;2022-09-01T09:36:20;23.10;71.30
52575;DHT22;38468;48.114;-1.684;2022-09-01T09:38:23;23.10;71.20
52575;DHT22;38468;48.114;-1.684;2022-09-01T09:40:33;23.10;71.30
52575;DHT22;38468;48.114;-1.684;2022-09-01T09:42:35;23.10;71.10
52575;DHT22;38468;48.114;-1.684;2022-09-01T09:44:48;23.20;70.90
52575;DHT22;38468;48.114;-1.684;2022-09-01T09:46:52;23.30;70.40
52575;DHT22;38468;48.114;-1.684;2022-09-01T09:49:20;23.40;70.50
52575;DHT22;38468;48.114;-1.684;2022-09-01T09:51:24;23.50;70.70
52575;DHT22;38468;48.114;-1.684;2022-09-01T09:53:28;23.50;70.80
52575;DHT22;38468;48.114;-1.684;2022-09-01T09:55:29;23.60;70.30
52575;DHT22;38468;48.114;-1.684;2022-09-01T09:57:31;23.60;69.90
52575;DHT22;38468;48.114;-1.684;2022-09-01T10:01:39;23.60;69.30
52575;DHT22;38468;48.114;-1.684;2022-09-01T10:03:46;23.50;70.10
52575;DHT22;38468;48.114;-1.684;2022-09-01T10:05:49;23.70;70.10
52575;DHT22;38468;48.114;-1.684;2022-09-01T10:07:54;23.80;69.40
52575;DHT22;38468;48.114;-1.684;2022-09-01T10:09:58;23.80;69.40
52575;DHT22;38468;48.114;-1.684;2022-09-01T10:12:00;23.70;69.50
52575;DHT22;38468;48.114;-1.684;2022-09-01T10:14:05;23.50;70.00
52575;DHT22;38468;48.114;-1.684;2022-09-01T10:16:21;23.50;69.70
52575;DHT22;38468;48.114;-1.684;2022-09-01T10:18:28;23.60;70.40
52575;DHT22;38468;48.114;-1.684;2022-09-01T10:20:30;23.60;69.50
52575;DHT22;38468;48.114;-1.684;2022-09-01T10:22:33;23.80;70.30
52575;DHT22;38468;48.114;-1.684;2022-09-01T10:24:35;23.80;70.10
52575;DHT22;38468;48.114;-1.684;2022-09-01T10:26:39;24.00;70.20
52575;DHT22;38468;48.114;-1.684;2022-09-01T10:29:36;24.30;69.70
52575;DHT22;38468;48.114;-1.684;2022-09-01T10:31:39;24.30;68.80
52575;DHT22;38468;48.114;-1.684;2022-09-01T10:33:40;24.40;68.10
52575;DHT22;38468;48.114;-1.684;2022-09-01T10:35:44;24.30;69.40
52575;DHT22;38468;48.114;-1.684;2022-09-01T10:37:47;24.50;69.30
52575;DHT22;38468;48.114;-1.684;2022-09-01T10:42:16;24.80;68.20
52575;DHT22;38468;48.114;-1.684;2022-09-01T10:44:26;24.70;67.80
52575;DHT22;38468;48.114;-1.684;2022-09-01T10:48:34;24.70;67.70
52575;DHT22;38468;48.114;-1.684;2022-09-01T10:50:37;24.60;68.00
52575;DHT22;38468;48.114;-1.684;2022-09-01T10:56:46;25.00;68.00
52575;DHT22;38468;48.114;-1.684;2022-09-01T11:01:07;25.20;67.20
52575;DHT22;38468;48.114;-1.684;2022-09-01T11:05:14;25.00;66.50
52575;DHT22;38468;48.114;-1.684;2022-09-01T11:11:40;25.00;67.00
52575;DHT22;38468;48.114;-1.684;2022-09-01T11:13:49;25.00;66.20
52575;DHT22;38468;48.114;-1.684;2022-09-01T11:15:50;25.00;66.50
52575;DHT22;38468;48.114;-1.684;2022-09-01T11:17:55;25.20;66.70
52575;DHT22;38468;48.114;-1.684;2022-09-01T11:20:27;25.10;66.60
52575;DHT22;38468;48.114;-1.684;2022-09-01T11:23:06;25.10;66.60
52575;DHT22;38468;48.114;-1.684;2022-09-01T11:27:11;25.20;66.50
52575;DHT22;38468;48.114;-1.684;2022-09-01T11:29:54;25.30;66.40
52575;DHT22;38468;48.114;-1.684;2022-09-01T11:31:55;25.40;65.80
52575;DHT22;38468;48.114;-1.684;2022-09-01T11:34:11;25.30;65.20
52575;DHT22;38468;48.114;-1.684;2022-09-01T11:38:33;25.30;64.90
52575;DHT22;38468;48.114;-1.684;2022-09-01T11:40:37;25.30;64.10
52575;DHT22;38468;48.114;-1.684;2022-09-01T11:42:43;25.30;63.60
52575;DHT22;38468;48.114;-1.684;2022-09-01T11:44:50;25.40;64.20
52575;DHT22;38468;48.114;-1.684;2022-09-01T11:47:01;25.50;64.50
52575;DHT22;38468;48.114;-1.684;2022-09-01T11:49:07;25.60;63.50
52575;DHT22;38468;48.114;-1.684;2022-09-01T11:51:15;25.70;64.20
52575;DHT22;38468;48.114;-1.684;2022-09-01T11:53:21;25.90;63.20
52575;DHT22;38468;48.114;-1.684;2022-09-01T11:55:33;26.00;63.50
52575;DHT22;38468;48.114;-1.684;2022-09-01T11:57:37;26.10;62.90
52575;DHT22;38468;48.114;-1.684;2022-09-01T11:59:38;26.10;62.90
52575;DHT22;38468;48.114;-1.684;2022-09-01T12:01:39;26.20;62.90
52575;DHT22;38468;48.114;-1.684;2022-09-01T12:03:40;26.10;61.80
52575;DHT22;38468;48.114;-1.684;2022-09-01T12:05:40;26.10;62.50
52575;DHT22;38468;48.114;-1.684;2022-09-01T12:07:46;26.20;62.20
52575;DHT22;38468;48.114;-1.684;2022-09-01T12:09:47;26.30;62.30
52575;DHT22;38468;48.114;-1.684;2022-09-01T12:11:47;26.40;61.30
52575;DHT22;38468;48.114;-1.684;2022-09-01T12:16:05;26.40;60.00
52575;DHT22;38468;48.114;-1.684;2022-09-01T12:20:24;26.10;59.90
52575;DHT22;38468;48.114;-1.684;2022-09-01T12:22:25;26.30;60.70
52575;DHT22;38468;48.114;-1.684;2022-09-01T12:24:26;26.30;59.70
52575;DHT22;38468;48.114;-1.684;2022-09-01T12:26:29;26.40;59.70
52575;DHT22;38468;48.114;-1.684;2022-09-01T12:28:32;26.40;59.80
52575;DHT22;38468;48.114;-1.684;2022-09-01T12:30:33;26.40;60.10
52575;DHT22;38468;48.114;-1.684;2022-09-01T12:32:38;26.40;60.50
52575;DHT22;38468;48.114;-1.684;2022-09-01T12:34:45;26.50;60.10
52575;DHT22;38468;48.114;-1.684;2022-09-01T12:43:36;26.40;60.50
52575;DHT22;38468;48.114;-1.684;2022-09-01T12:45:44;26.40;60.10
52575;DHT22;38468;48.114;-1.684;2022-09-01T12:47:47;26.50;59.50
52575;DHT22;38468;48.114;-1.684;2022-09-01T12:49:48;26.60;59.30
52575;DHT22;38468;48.114;-1.684;2022-09-01T12:51:48;26.70;58.50
52575;DHT22;38468;48.114;-1.684;2022-09-01T12:53:53;26.60;59.40
52575;DHT22;38468;48.114;-1.684;2022-09-01T12:56:01;26.70;57.70
52575;DHT22;38468;48.114;-1.684;2022-09-01T12:58:05;26.70;56.90
52575;DHT22;38468;48.114;-1.684;2022-09-01T13:00:17;26.60;57.30
52575;DHT22;38468;48.114;-1.684;2022-09-01T13:02:33;26.70;56.80
52575;DHT22;38468;48.114;-1.684;2022-09-01T13:04:35;26.60;56.90
52575;DHT22;38468;48.114;-1.684;2022-09-01T13:06:36;26.50;56.50
52575;DHT22;38468;48.114;-1.684;2022-09-01T13:08:36;26.40;57.10
52575;DHT22;38468;48.114;-1.684;2022-09-01T13:10:43;26.40;55.90
52575;DHT22;38468;48.114;-1.684;2022-09-01T13:12:44;26.50;56.00
52575;DHT22;38468;48.114;-1.684;2022-09-01T13:14:45;26.50;56.00
52575;DHT22;38468;48.114;-1.684;2022-09-01T13:16:46;26.50;55.30
52575;DHT22;38468;48.114;-1.684;2022-09-01T13:18:47;26.50;55.50
52575;DHT22;38468;48.114;-1.684;2022-09-01T13:20:49;26.50;55.90
52575;DHT22;38468;48.114;-1.684;2022-09-01T13:22:50;26.70;55.40
52575;DHT22;38468;48.114;-1.684;2022-09-01T13:24:52;26.70;54.40
52575;DHT22;38468;48.114;-1.684;2022-09-01T13:26:52;26.80;54.80
52575;DHT22;38468;48.114;-1.684;2022-09-01T13:28:57;26.90;55.00
52575;DHT22;38468;48.114;-1.684;2022-09-01T13:31:00;27.00;55.10
52575;DHT22;38468;48.114;-1.684;2022-09-01T13:33:04;27.30;54.70
52575;DHT22;38468;48.114;-1.684;2022-09-01T13:35:06;27.50;53.90
52575;DHT22;38468;48.114;-1.684;2022-09-01T13:37:07;27.70;53.90
52575;DHT22;38468;48.114;-1.684;2022-09-01T13:39:07;27.70;52.40